Kingston, WI (53939)

10:23 PM CST on November 26, 2014 (GMT -0600)
Marquette County | Change Station
CLOSE
Current Station
Personal Weather Station
Location: Montello, WI
Elevation: 797 ft
Nearby Weather Stations

Elev 797 ft 43.79 °N, 89.34 °W | Updated 19 minutes ago

Partly Cloudy
Partly Cloudy
18.0 °F
Feels Like 18 °F
N
0.0
Wind Variable Wind from NNW
Gusts 0.0 mph

Today
High -- | Low -- °F
--% Chance of Precip.
Yesterday
High -- | Low -- °F
Precip. -- in
7:04 AM 4:22 PM
Waxing Crescent, 25% visible
Pressure 30.24 in
Visibility 7.0 miles
Clouds Few 3200 ft
Scattered Clouds 4600 ft
Overcast 6000 ft
Windchill 18 °F
Dew Point 18 °F
Humidity 100%
Rainfall -999.00 in
Snow Depth Not available.
UV 0 out of 12
Pollen .10 out of 12
Air Quality Not available.
Flu Activity Not available.
METAR KY50 270356Z AUTO 29005KT 7SM FEW032 SCT046 OVC060 M06/M07 A3020 RMK AO2 TSNO T10551072 UPE25 P0000 SLP238

More Conditions Fewer Conditions

Pressure 30.24 in
Visibility 7.0 miles
Clouds Few 3200 ft
Scattered Clouds 4600 ft
Overcast 6000 ft
Windchill 18 °F
Dew Point 18 °F
Humidity 100%
Rainfall -999.00 in
Snow Depth Not available.
UV 0 out of 12
Pollen .10 out of 12
Air Quality Not available.
Flu Activity Not available.
METAR KY50 270356Z AUTO 29005KT 7SM FEW032 SCT046 OVC060 M06/M07 A3020 RMK AO2 TSNO T10551072 UPE25 P0000 SLP238

More Conditions Fewer Conditions

10-Day Weather Forecast

Almanac

Astronomy

Nov. 26, 2014 Rise Set
Actual Time
Civil Twilight
Nautical Twilight
Astronomical Twilight
Moon
Length of Visible Light
Length of Day
Tomorrow will be .
, % of the Moon is Illuminated

Today's Extremes

State Highs State Lows

Community

WunderPhotos

Upload Photos

1,773,958 photos uploaded!

WunderBlogs® & News

Nearby

Air Quality

  Air Quality AQ Index Pollutant
Not available.

Snow Depth

Station Depth Elevation

Earthquake Activity

City Distance Mag. Time & Date
Minimum magnitude displayed is 2.5.

Coastal Water Temperatures

Place Temperature

Nearby Weather Stations